Blue Eye, MO

10:33 AM CST on December 19, 2014 (GMT -0600)
Boone County | Change Station
CLOSE
Current Station
Airport
Location: Harrison,
Elevation: 1365 ft
Nearby Weather Stations

Elev 1365 ft 36.26 °N, 93.15 °W | Updated 40 minutes ago

Fog
Fog
37 °F
Feels Like 33 °F
N
5
Wind Variable Wind from SE

Today
High -- | Low -- °F
--% Chance of Precip.
Yesterday
High -- | Low -- °F
Precip. -- in
7:20 AM 5:01 PM
Waning Crescent, 7% visible
Pressure 30.26 in
Visibility 0.2 miles
Clouds
Windchill 33 °F
Dew Point 37 °F
Humidity 100%
Rainfall 0.00 in
Snow Depth Not available.
UV Not available.
Pollen 3.90 out of 12
Air Quality Not available.
Flu Activity Not available.
METAR KHRO 191553Z AUTO 13004KT 1/4SM FG VV002 03/03 A3024 RMK AO2 SLP247 T00280028

More Conditions Fewer Conditions

Pressure 30.26 in
Visibility 0.2 miles
Clouds
Windchill 33 °F
Dew Point 37 °F
Humidity 100%
Rainfall 0.00 in
Snow Depth Not available.
UV Not available.
Pollen 3.90 out of 12
Air Quality Not available.
Flu Activity Not available.
METAR KHRO 191553Z AUTO 13004KT 1/4SM FG VV002 03/03 A3024 RMK AO2 SLP247 T00280028

More Conditions Fewer Conditions

10-Day Weather Forecast

Almanac

Astronomy

Dec. 19, 2014 Rise Set
Actual Time
Civil Twilight
Nautical Twilight
Astronomical Twilight
Moon
Length of Visible Light
Length of Day
Tomorrow will be .
, % of the Moon is Illuminated

Today's Extremes

State Highs State Lows

Community

WunderPhotos

Upload Photos

1,779,005 photos uploaded!

WunderBlogs® & News

Nearby

Air Quality

  Air Quality AQ Index Pollutant
Not available.

Snow Depth

Station Depth Elevation

Earthquake Activity

City Distance Mag. Time & Date
Minimum magnitude displayed is 2.5.

Coastal Water Temperatures

Place Temperature

Nearby Weather Stations